sensor_id;sensor_type;location;lat;lon;timestamp;P1;durP1;ratioP1;P2;durP2;ratioP2
51066;SDS011;37112;45.892;-123.962;2023-01-15T00:02:10;0.40;;;0.40;;
51066;SDS011;37112;45.892;-123.962;2023-01-15T00:04:24;0.90;;;0.60;;
51066;SDS011;37112;45.892;-123.962;2023-01-15T00:06:39;0.70;;;0.40;;
51066;SDS011;37112;45.892;-123.962;2023-01-15T00:08:53;1.60;;;0.50;;
51066;SDS011;37112;45.892;-123.962;2023-01-15T00:11:06;0.70;;;0.50;;
51066;SDS011;37112;45.892;-123.962;2023-01-15T00:13:20;0.40;;;0.40;;
51066;SDS011;37112;45.892;-123.962;2023-01-15T00:15:36;0.40;;;0.40;;
51066;SDS011;37112;45.892;-123.962;2023-01-15T00:17:50;0.30;;;0.30;;
51066;SDS011;37112;45.892;-123.962;2023-01-15T00:20:03;0.40;;;0.40;;
51066;SDS011;37112;45.892;-123.962;2023-01-15T00:22:18;0.60;;;0.40;;
51066;SDS011;37112;45.892;-123.962;2023-01-15T00:24:31;1.00;;;0.60;;
51066;SDS011;37112;45.892;-123.962;2023-01-15T00:27:09;0.80;;;0.50;;
51066;SDS011;37112;45.892;-123.962;2023-01-15T00:29:39;8.60;;;1.00;;
51066;SDS011;37112;45.892;-123.962;2023-01-15T00:31:53;0.80;;;0.50;;
51066;SDS011;37112;45.892;-123.962;2023-01-15T00:34:10;1.80;;;0.70;;
51066;SDS011;37112;45.892;-123.962;2023-01-15T00:36:24;0.40;;;0.40;;
51066;SDS011;37112;45.892;-123.962;2023-01-15T00:38:37;0.90;;;0.60;;
51066;SDS011;37112;45.892;-123.962;2023-01-15T00:40:51;1.00;;;0.70;;
51066;SDS011;37112;45.892;-123.962;2023-01-15T00:43:04;0.60;;;0.50;;
51066;SDS011;37112;45.892;-123.962;2023-01-15T00:45:17;1.90;;;0.60;;
51066;SDS011;37112;45.892;-123.962;2023-01-15T00:47:30;1.00;;;0.50;;
51066;SDS011;37112;45.892;-123.962;2023-01-15T00:49:44;1.00;;;0.50;;
51066;SDS011;37112;45.892;-123.962;2023-01-15T00:51:57;0.50;;;0.50;;
51066;SDS011;37112;45.892;-123.962;2023-01-15T00:54:14;1.90;;;0.50;;
51066;SDS011;37112;45.892;-123.962;2023-01-15T00:56:27;0.70;;;0.50;;
51066;SDS011;37112;45.892;-123.962;2023-01-15T00:58:41;0.50;;;0.50;;
51066;SDS011;37112;45.892;-123.962;2023-01-15T01:00:55;0.60;;;0.40;;
51066;SDS011;37112;45.892;-123.962;2023-01-15T01:03:09;0.40;;;0.40;;
51066;SDS011;37112;45.892;-123.962;2023-01-15T01:05:24;1.00;;;0.50;;
51066;SDS011;37112;45.892;-123.962;2023-01-15T01:07:37;0.60;;;0.40;;
51066;SDS011;37112;45.892;-123.962;2023-01-15T01:09:51;0.60;;;0.50;;
51066;SDS011;37112;45.892;-123.962;2023-01-15T01:12:04;0.70;;;0.50;;
51066;SDS011;37112;45.892;-123.962;2023-01-15T01:14:17;0.60;;;0.50;;
51066;SDS011;37112;45.892;-123.962;2023-01-15T01:16:31;0.80;;;0.40;;
51066;SDS011;37112;45.892;-123.962;2023-01-15T01:18:45;0.90;;;0.50;;
51066;SDS011;37112;45.892;-123.962;2023-01-15T01:20:59;0.80;;;0.50;;
51066;SDS011;37112;45.892;-123.962;2023-01-15T01:23:14;0.60;;;0.50;;
51066;SDS011;37112;45.892;-123.962;2023-01-15T01:25:27;0.90;;;0.50;;
51066;SDS011;37112;45.892;-123.962;2023-01-15T01:27:41;1.70;;;0.50;;
51066;SDS011;37112;45.892;-123.962;2023-01-15T01:29:55;0.90;;;0.60;;
51066;SDS011;37112;45.892;-123.962;2023-01-15T01:32:08;0.50;;;0.50;;
51066;SDS011;37112;45.892;-123.962;2023-01-15T01:34:22;0.40;;;0.40;;
51066;SDS011;37112;45.892;-123.962;2023-01-15T01:36:37;0.80;;;0.50;;
51066;SDS011;37112;45.892;-123.962;2023-01-15T01:38:51;1.00;;;0.60;;
51066;SDS011;37112;45.892;-123.962;2023-01-15T01:41:05;1.30;;;0.50;;
51066;SDS011;37112;45.892;-123.962;2023-01-15T01:43:21;0.40;;;0.40;;
51066;SDS011;37112;45.892;-123.962;2023-01-15T01:45:35;0.70;;;0.60;;
51066;SDS011;37112;45.892;-123.962;2023-01-15T01:47:50;1.40;;;0.60;;
51066;SDS011;37112;45.892;-123.962;2023-01-15T01:50:08;1.00;;;0.50;;
51066;SDS011;37112;45.892;-123.962;2023-01-15T01:52:25;0.50;;;0.50;;
51066;SDS011;37112;45.892;-123.962;2023-01-15T01:54:42;0.80;;;0.50;;
51066;SDS011;37112;45.892;-123.962;2023-01-15T01:56:59;0.50;;;0.50;;
51066;SDS011;37112;45.892;-123.962;2023-01-15T01:59:13;0.90;;;0.60;;
51066;SDS011;37112;45.892;-123.962;2023-01-15T02:01:27;1.20;;;0.60;;
51066;SDS011;37112;45.892;-123.962;2023-01-15T02:03:41;0.90;;;0.50;;
51066;SDS011;37112;45.892;-123.962;2023-01-15T02:05:55;1.80;;;0.50;;
51066;SDS011;37112;45.892;-123.962;2023-01-15T02:08:11;0.70;;;0.50;;
51066;SDS011;37112;45.892;-123.962;2023-01-15T02:10:26;0.70;;;0.50;;
51066;SDS011;37112;45.892;-123.962;2023-01-15T02:12:40;4.10;;;0.70;;
51066;SDS011;37112;45.892;-123.962;2023-01-15T02:14:59;0.50;;;0.50;;
51066;SDS011;37112;45.892;-123.962;2023-01-15T02:17:19;0.90;;;0.60;;
51066;SDS011;37112;45.892;-123.962;2023-01-15T02:19:43;0.80;;;0.50;;
51066;SDS011;37112;45.892;-123.962;2023-01-15T02:22:03;0.70;;;0.50;;
51066;SDS011;37112;45.892;-123.962;2023-01-15T02:24:27;0.80;;;0.50;;
51066;SDS011;37112;45.892;-123.962;2023-01-15T02:29:26;0.60;;;0.50;;
51066;SDS011;37112;45.892;-123.962;2023-01-15T02:31:47;1.60;;;0.50;;
51066;SDS011;37112;45.892;-123.962;2023-01-15T02:34:03;0.50;;;0.40;;
51066;SDS011;37112;45.892;-123.962;2023-01-15T02:36:22;1.70;;;0.50;;
51066;SDS011;37112;45.892;-123.962;2023-01-15T02:38:38;0.50;;;0.50;;
51066;SDS011;37112;45.892;-123.962;2023-01-15T02:40:55;0.50;;;0.50;;
51066;SDS011;37112;45.892;-123.962;2023-01-15T02:43:15;0.90;;;0.50;;
51066;SDS011;37112;45.892;-123.962;2023-01-15T02:45:31;0.90;;;0.50;;
51066;SDS011;37112;45.892;-123.962;2023-01-15T02:47:50;0.90;;;0.60;;
51066;SDS011;37112;45.892;-123.962;2023-01-15T02:50:14;1.10;;;0.70;;
51066;SDS011;37112;45.892;-123.962;2023-01-15T02:52:30;1.00;;;0.80;;
51066;SDS011;37112;45.892;-123.962;2023-01-15T02:54:52;0.70;;;0.60;;
51066;SDS011;37112;45.892;-123.962;2023-01-15T02:57:07;0.50;;;0.50;;
51066;SDS011;37112;45.892;-123.962;2023-01-15T02:59:28;1.00;;;0.50;;
51066;SDS011;37112;45.892;-123.962;2023-01-15T03:01:45;0.40;;;0.40;;
51066;SDS011;37112;45.892;-123.962;2023-01-15T03:04:04;0.90;;;0.50;;
51066;SDS011;37112;45.892;-123.962;2023-01-15T03:06:24;0.90;;;0.70;;
51066;SDS011;37112;45.892;-123.962;2023-01-15T03:08:47;0.90;;;0.50;;
51066;SDS011;37112;45.892;-123.962;2023-01-15T03:11:02;0.40;;;0.40;;
51066;SDS011;37112;45.892;-123.962;2023-01-15T03:13:23;0.60;;;0.60;;
51066;SDS011;37112;45.892;-123.962;2023-01-15T03:15:50;2.00;;;0.60;;
51066;SDS011;37112;45.892;-123.962;2023-01-15T03:18:25;0.40;;;0.40;;
51066;SDS011;37112;45.892;-123.962;2023-01-15T03:20:44;0.40;;;0.40;;
51066;SDS011;37112;45.892;-123.962;2023-01-15T03:23:05;0.50;;;0.40;;
51066;SDS011;37112;45.892;-123.962;2023-01-15T03:25:22;0.90;;;0.50;;
51066;SDS011;37112;45.892;-123.962;2023-01-15T03:27:40;0.90;;;0.50;;
51066;SDS011;37112;45.892;-123.962;2023-01-15T03:29:58;1.20;;;0.70;;
51066;SDS011;37112;45.892;-123.962;2023-01-15T03:32:15;1.70;;;0.70;;
51066;SDS011;37112;45.892;-123.962;2023-01-15T03:34:32;17.30;;;4.20;;
51066;SDS011;37112;45.892;-123.962;2023-01-15T03:36:56;37.60;;;6.70;;
51066;SDS011;37112;45.892;-123.962;2023-01-15T03:39:09;39.80;;;8.80;;
51066;SDS011;37112;45.892;-123.962;2023-01-15T03:41:37;48.30;;;9.20;;
51066;SDS011;37112;45.892;-123.962;2023-01-15T03:44:06;28.70;;;6.20;;
51066;SDS011;37112;45.892;-123.962;2023-01-15T03:46:29;16.90;;;4.50;;
51066;SDS011;37112;45.892;-123.962;2023-01-15T03:48:53;14.80;;;4.40;;
51066;SDS011;37112;45.892;-123.962;2023-01-15T03:51:12;8.10;;;3.50;;
51066;SDS011;37112;45.892;-123.962;2023-01-15T03:53:32;10.80;;;3.30;;
51066;SDS011;37112;45.892;-123.962;2023-01-15T03:55:52;5.90;;;2.10;;
51066;SDS011;37112;45.892;-123.962;2023-01-15T03:58:14;5.50;;;1.30;;
51066;SDS011;37112;45.892;-123.962;2023-01-15T04:00:35;5.80;;;2.20;;
51066;SDS011;37112;45.892;-123.962;2023-01-15T04:02:52;4.00;;;1.10;;
51066;SDS011;37112;45.892;-123.962;2023-01-15T04:05:09;3.10;;;2.30;;
51066;SDS011;37112;45.892;-123.962;2023-01-15T04:07:26;5.20;;;3.30;;
51066;SDS011;37112;45.892;-123.962;2023-01-15T04:09:40;8.00;;;5.60;;
51066;SDS011;37112;45.892;-123.962;2023-01-15T04:11:59;1.80;;;1.40;;
51066;SDS011;37112;45.892;-123.962;2023-01-15T04:14:17;1.10;;;1.00;;
51066;SDS011;37112;45.892;-123.962;2023-01-15T04:16:33;1.50;;;1.10;;
51066;SDS011;37112;45.892;-123.962;2023-01-15T04:18:46;2.20;;;1.10;;
51066;SDS011;37112;45.892;-123.962;2023-01-15T04:20:59;3.40;;;0.80;;
51066;SDS011;37112;45.892;-123.962;2023-01-15T04:23:12;5.80;;;2.80;;
51066;SDS011;37112;45.892;-123.962;2023-01-15T04:25:27;1.10;;;1.00;;
51066;SDS011;37112;45.892;-123.962;2023-01-15T04:27:41;2.40;;;1.20;;
51066;SDS011;37112;45.892;-123.962;2023-01-15T04:29:54;2.80;;;1.10;;
51066;SDS011;37112;45.892;-123.962;2023-01-15T04:32:07;2.00;;;1.80;;
51066;SDS011;37112;45.892;-123.962;2023-01-15T04:34:20;5.10;;;4.10;;
51066;SDS011;37112;45.892;-123.962;2023-01-15T04:36:33;8.70;;;7.90;;
51066;SDS011;37112;45.892;-123.962;2023-01-15T04:38:47;4.40;;;3.90;;
51066;SDS011;37112;45.892;-123.962;2023-01-15T04:41:01;4.00;;;2.70;;
51066;SDS011;37112;45.892;-123.962;2023-01-15T04:43:31;4.70;;;3.60;;
51066;SDS011;37112;45.892;-123.962;2023-01-15T04:46:01;4.30;;;3.40;;
51066;SDS011;37112;45.892;-123.962;2023-01-15T04:48:15;2.60;;;2.00;;
51066;SDS011;37112;45.892;-123.962;2023-01-15T04:50:28;2.10;;;1.00;;
51066;SDS011;37112;45.892;-123.962;2023-01-15T04:52:42;1.10;;;0.50;;
51066;SDS011;37112;45.892;-123.962;2023-01-15T04:54:55;0.80;;;0.70;;
51066;SDS011;37112;45.892;-123.962;2023-01-15T04:57:10;1.50;;;0.90;;
51066;SDS011;37112;45.892;-123.962;2023-01-15T04:59:24;1.80;;;0.40;;
51066;SDS011;37112;45.892;-123.962;2023-01-15T05:01:37;0.40;;;0.40;;
51066;SDS011;37112;45.892;-123.962;2023-01-15T05:04:08;10.40;;;4.60;;
51066;SDS011;37112;45.892;-123.962;2023-01-15T05:06:21;25.20;;;4.10;;
51066;SDS011;37112;45.892;-123.962;2023-01-15T05:08:35;24.60;;;3.70;;
51066;SDS011;37112;45.892;-123.962;2023-01-15T05:10:48;8.10;;;2.40;;
51066;SDS011;37112;45.892;-123.962;2023-01-15T05:13:02;10.50;;;3.10;;
51066;SDS011;37112;45.892;-123.962;2023-01-15T05:15:28;22.20;;;4.00;;
51066;SDS011;37112;45.892;-123.962;2023-01-15T05:17:42;14.30;;;2.60;;
51066;SDS011;37112;45.892;-123.962;2023-01-15T05:19:54;18.70;;;3.00;;
51066;SDS011;37112;45.892;-123.962;2023-01-15T05:22:08;19.20;;;2.80;;
51066;SDS011;37112;45.892;-123.962;2023-01-15T05:24:21;16.70;;;3.20;;
51066;SDS011;37112;45.892;-123.962;2023-01-15T05:26:37;4.40;;;0.90;;
51066;SDS011;37112;45.892;-123.962;2023-01-15T05:28:53;3.00;;;1.20;;
51066;SDS011;37112;45.892;-123.962;2023-01-15T05:31:09;4.10;;;0.80;;
51066;SDS011;37112;45.892;-123.962;2023-01-15T05:33:23;4.10;;;1.40;;
51066;SDS011;37112;45.892;-123.962;2023-01-15T05:35:37;2.10;;;0.70;;
51066;SDS011;37112;45.892;-123.962;2023-01-15T05:37:50;1.50;;;0.70;;
51066;SDS011;37112;45.892;-123.962;2023-01-15T05:40:04;1.90;;;0.50;;
51066;SDS011;37112;45.892;-123.962;2023-01-15T05:42:19;2.00;;;0.60;;
51066;SDS011;37112;45.892;-123.962;2023-01-15T05:44:32;1.20;;;0.90;;
51066;SDS011;37112;45.892;-123.962;2023-01-15T05:46:47;1.20;;;0.50;;
51066;SDS011;37112;45.892;-123.962;2023-01-15T05:49:02;0.40;;;0.40;;
51066;SDS011;37112;45.892;-123.962;2023-01-15T05:51:17;0.30;;;0.30;;
51066;SDS011;37112;45.892;-123.962;2023-01-15T05:53:30;0.40;;;0.40;;
51066;SDS011;37112;45.892;-123.962;2023-01-15T05:55:43;0.30;;;0.30;;
51066;SDS011;37112;45.892;-123.962;2023-01-15T05:57:58;0.30;;;0.30;;
51066;SDS011;37112;45.892;-123.962;2023-01-15T06:00:13;0.40;;;0.40;;
51066;SDS011;37112;45.892;-123.962;2023-01-15T06:02:27;0.30;;;0.30;;
51066;SDS011;37112;45.892;-123.962;2023-01-15T06:04:41;0.40;;;0.40;;
51066;SDS011;37112;45.892;-123.962;2023-01-15T06:06:55;0.30;;;0.30;;
51066;SDS011;37112;45.892;-123.962;2023-01-15T06:09:08;0.30;;;0.30;;
51066;SDS011;37112;45.892;-123.962;2023-01-15T06:11:22;0.40;;;0.40;;
51066;SDS011;37112;45.892;-123.962;2023-01-15T06:13:35;0.30;;;0.30;;
51066;SDS011;37112;45.892;-123.962;2023-01-15T06:15:49;0.60;;;0.60;;
51066;SDS011;37112;45.892;-123.962;2023-01-15T06:18:02;2.30;;;0.40;;
51066;SDS011;37112;45.892;-123.962;2023-01-15T06:20:15;0.60;;;0.50;;
51066;SDS011;37112;45.892;-123.962;2023-01-15T06:22:28;0.40;;;0.40;;
51066;SDS011;37112;45.892;-123.962;2023-01-15T06:24:41;0.30;;;0.30;;
51066;SDS011;37112;45.892;-123.962;2023-01-15T06:26:58;1.40;;;0.50;;
51066;SDS011;37112;45.892;-123.962;2023-01-15T06:29:11;1.00;;;0.40;;
51066;SDS011;37112;45.892;-123.962;2023-01-15T06:31:27;0.40;;;0.40;;
51066;SDS011;37112;45.892;-123.962;2023-01-15T06:33:40;0.30;;;0.30;;
51066;SDS011;37112;45.892;-123.962;2023-01-15T06:35:54;0.70;;;0.40;;
51066;SDS011;37112;45.892;-123.962;2023-01-15T06:38:07;1.40;;;0.40;;
51066;SDS011;37112;45.892;-123.962;2023-01-15T06:40:21;0.50;;;0.50;;
51066;SDS011;37112;45.892;-123.962;2023-01-15T06:42:35;3.40;;;0.50;;
51066;SDS011;37112;45.892;-123.962;2023-01-15T06:45:07;0.30;;;0.30;;
51066;SDS011;37112;45.892;-123.962;2023-01-15T06:49:48;0.40;;;0.40;;
51066;SDS011;37112;45.892;-123.962;2023-01-15T06:52:03;0.60;;;0.60;;
51066;SDS011;37112;45.892;-123.962;2023-01-15T06:54:18;1.80;;;0.60;;
51066;SDS011;37112;45.892;-123.962;2023-01-15T06:56:32;0.70;;;0.40;;
51066;SDS011;37112;45.892;-123.962;2023-01-15T06:58:45;2.20;;;0.60;;
51066;SDS011;37112;45.892;-123.962;2023-01-15T07:00:59;1.40;;;0.50;;
51066;SDS011;37112;45.892;-123.962;2023-01-15T07:03:16;0.40;;;0.40;;
51066;SDS011;37112;45.892;-123.962;2023-01-15T07:05:29;0.30;;;0.30;;
51066;SDS011;37112;45.892;-123.962;2023-01-15T07:07:42;1.50;;;0.40;;
51066;SDS011;37112;45.892;-123.962;2023-01-15T07:09:56;0.60;;;0.40;;
51066;SDS011;37112;45.892;-123.962;2023-01-15T07:12:09;1.30;;;0.30;;
51066;SDS011;37112;45.892;-123.962;2023-01-15T07:14:23;1.80;;;0.30;;
51066;SDS011;37112;45.892;-123.962;2023-01-15T07:16:36;0.30;;;0.30;;
51066;SDS011;37112;45.892;-123.962;2023-01-15T07:18:49;0.50;;;0.50;;
51066;SDS011;37112;45.892;-123.962;2023-01-15T07:21:04;0.90;;;0.40;;
51066;SDS011;37112;45.892;-123.962;2023-01-15T07:23:17;0.30;;;0.30;;
51066;SDS011;37112;45.892;-123.962;2023-01-15T07:25:31;0.30;;;0.30;;
51066;SDS011;37112;45.892;-123.962;2023-01-15T07:27:44;0.30;;;0.30;;
51066;SDS011;37112;45.892;-123.962;2023-01-15T07:29:57;0.60;;;0.30;;
51066;SDS011;37112;45.892;-123.962;2023-01-15T07:32:10;0.30;;;0.30;;
51066;SDS011;37112;45.892;-123.962;2023-01-15T07:34:24;0.20;;;0.20;;
51066;SDS011;37112;45.892;-123.962;2023-01-15T07:36:37;0.30;;;0.30;;
51066;SDS011;37112;45.892;-123.962;2023-01-15T07:38:51;0.30;;;0.30;;
51066;SDS011;37112;45.892;-123.962;2023-01-15T07:41:04;0.40;;;0.30;;
51066;SDS011;37112;45.892;-123.962;2023-01-15T07:43:35;0.30;;;0.30;;
51066;SDS011;37112;45.892;-123.962;2023-01-15T07:46:08;0.30;;;0.30;;
51066;SDS011;37112;45.892;-123.962;2023-01-15T07:48:39;0.30;;;0.30;;
51066;SDS011;37112;45.892;-123.962;2023-01-15T07:51:08;0.30;;;0.30;;
51066;SDS011;37112;45.892;-123.962;2023-01-15T07:53:22;0.90;;;0.30;;
51066;SDS011;37112;45.892;-123.962;2023-01-15T07:55:37;0.30;;;0.30;;
51066;SDS011;37112;45.892;-123.962;2023-01-15T07:57:50;0.30;;;0.30;;
51066;SDS011;37112;45.892;-123.962;2023-01-15T08:00:06;0.30;;;0.30;;
51066;SDS011;37112;45.892;-123.962;2023-01-15T08:02:22;1.30;;;0.30;;
51066;SDS011;37112;45.892;-123.962;2023-01-15T08:04:35;0.30;;;0.30;;
51066;SDS011;37112;45.892;-123.962;2023-01-15T08:06:49;0.30;;;0.30;;
51066;SDS011;37112;45.892;-123.962;2023-01-15T08:09:02;0.30;;;0.30;;
51066;SDS011;37112;45.892;-123.962;2023-01-15T08:11:16;0.30;;;0.30;;
51066;SDS011;37112;45.892;-123.962;2023-01-15T08:13:46;2.50;;;0.30;;
51066;SDS011;37112;45.892;-123.962;2023-01-15T08:16:15;0.30;;;0.30;;
51066;SDS011;37112;45.892;-123.962;2023-01-15T08:18:28;0.50;;;0.40;;
51066;SDS011;37112;45.892;-123.962;2023-01-15T08:20:41;0.30;;;0.30;;
51066;SDS011;37112;45.892;-123.962;2023-01-15T08:22:54;0.30;;;0.30;;
51066;SDS011;37112;45.892;-123.962;2023-01-15T08:25:10;0.60;;;0.30;;
51066;SDS011;37112;45.892;-123.962;2023-01-15T08:27:26;0.30;;;0.30;;
51066;SDS011;37112;45.892;-123.962;2023-01-15T08:29:40;1.10;;;0.50;;
51066;SDS011;37112;45.892;-123.962;2023-01-15T08:31:53;0.50;;;0.40;;
51066;SDS011;37112;45.892;-123.962;2023-01-15T08:34:08;1.10;;;0.30;;
51066;SDS011;37112;45.892;-123.962;2023-01-15T08:36:21;0.30;;;0.30;;
51066;SDS011;37112;45.892;-123.962;2023-01-15T08:38:35;0.70;;;0.30;;
51066;SDS011;37112;45.892;-123.962;2023-01-15T08:40:51;0.30;;;0.30;;
51066;SDS011;37112;45.892;-123.962;2023-01-15T08:43:07;1.30;;;0.30;;
51066;SDS011;37112;45.892;-123.962;2023-01-15T08:45:21;0.20;;;0.20;;
51066;SDS011;37112;45.892;-123.962;2023-01-15T08:47:34;0.30;;;0.30;;
51066;SDS011;37112;45.892;-123.962;2023-01-15T08:49:47;0.30;;;0.30;;
51066;SDS011;37112;45.892;-123.962;2023-01-15T08:52:02;0.30;;;0.30;;
51066;SDS011;37112;45.892;-123.962;2023-01-15T08:54:15;0.30;;;0.30;;
51066;SDS011;37112;45.892;-123.962;2023-01-15T08:56:31;0.30;;;0.30;;
51066;SDS011;37112;45.892;-123.962;2023-01-15T08:58:44;0.30;;;0.30;;
51066;SDS011;37112;45.892;-123.962;2023-01-15T09:01:02;1.20;;;0.90;;
51066;SDS011;37112;45.892;-123.962;2023-01-15T09:03:16;0.70;;;0.30;;
51066;SDS011;37112;45.892;-123.962;2023-01-15T09:05:29;2.20;;;0.30;;
51066;SDS011;37112;45.892;-123.962;2023-01-15T09:07:42;0.30;;;0.30;;
51066;SDS011;37112;45.892;-123.962;2023-01-15T09:09:55;1.00;;;0.20;;
51066;SDS011;37112;45.892;-123.962;2023-01-15T09:12:08;0.30;;;0.30;;
51066;SDS011;37112;45.892;-123.962;2023-01-15T09:14:22;0.30;;;0.30;;
51066;SDS011;37112;45.892;-123.962;2023-01-15T09:16:56;0.30;;;0.30;;
51066;SDS011;37112;45.892;-123.962;2023-01-15T09:19:10;0.60;;;0.30;;
51066;SDS011;37112;45.892;-123.962;2023-01-15T09:21:23;0.30;;;0.30;;
51066;SDS011;37112;45.892;-123.962;2023-01-15T09:23:36;0.30;;;0.30;;
51066;SDS011;37112;45.892;-123.962;2023-01-15T09:25:53;0.30;;;0.30;;
51066;SDS011;37112;45.892;-123.962;2023-01-15T09:28:07;0.30;;;0.30;;
51066;SDS011;37112;45.892;-123.962;2023-01-15T09:30:21;0.30;;;0.30;;
51066;SDS011;37112;45.892;-123.962;2023-01-15T09:32:34;0.30;;;0.30;;
51066;SDS011;37112;45.892;-123.962;2023-01-15T09:34:47;0.30;;;0.30;;
51066;SDS011;37112;45.892;-123.962;2023-01-15T09:37:01;0.30;;;0.30;;
51066;SDS011;37112;45.892;-123.962;2023-01-15T09:39:14;1.10;;;0.30;;
51066;SDS011;37112;45.892;-123.962;2023-01-15T09:41:29;0.30;;;0.30;;
51066;SDS011;37112;45.892;-123.962;2023-01-15T09:44:19;0.30;;;0.30;;
51066;SDS011;37112;45.892;-123.962;2023-01-15T09:46:43;0.30;;;0.30;;
51066;SDS011;37112;45.892;-123.962;2023-01-15T09:49:04;0.30;;;0.30;;
51066;SDS011;37112;45.892;-123.962;2023-01-15T09:51:31;0.30;;;0.30;;
51066;SDS011;37112;45.892;-123.962;2023-01-15T09:56:42;0.30;;;0.30;;
51066;SDS011;37112;45.892;-123.962;2023-01-15T09:58:56;1.30;;;0.30;;
51066;SDS011;37112;45.892;-123.962;2023-01-15T10:01:17;0.30;;;0.30;;
51066;SDS011;37112;45.892;-123.962;2023-01-15T10:03:37;0.50;;;0.30;;
51066;SDS011;37112;45.892;-123.962;2023-01-15T10:05:54;0.30;;;0.30;;
51066;SDS011;37112;45.892;-123.962;2023-01-15T10:08:13;0.30;;;0.30;;
51066;SDS011;37112;45.892;-123.962;2023-01-15T10:10:30;0.40;;;0.30;;
51066;SDS011;37112;45.892;-123.962;2023-01-15T10:12:52;0.30;;;0.30;;
51066;SDS011;37112;45.892;-123.962;2023-01-15T10:15:16;0.30;;;0.30;;
51066;SDS011;37112;45.892;-123.962;2023-01-15T10:17:42;0.30;;;0.30;;
51066;SDS011;37112;45.892;-123.962;2023-01-15T10:19:56;1.40;;;0.30;;
51066;SDS011;37112;45.892;-123.962;2023-01-15T10:22:11;1.10;;;0.30;;
51066;SDS011;37112;45.892;-123.962;2023-01-15T10:24:32;0.30;;;0.30;;
51066;SDS011;37112;45.892;-123.962;2023-01-15T10:26:54;0.30;;;0.30;;
51066;SDS011;37112;45.892;-123.962;2023-01-15T10:29:11;0.30;;;0.30;;
51066;SDS011;37112;45.892;-123.962;2023-01-15T10:31:46;0.30;;;0.30;;
51066;SDS011;37112;45.892;-123.962;2023-01-15T10:34:05;1.30;;;0.40;;
51066;SDS011;37112;45.892;-123.962;2023-01-15T10:36:37;0.30;;;0.30;;
51066;SDS011;37112;45.892;-123.962;2023-01-15T10:38:57;0.30;;;0.30;;
51066;SDS011;37112;45.892;-123.962;2023-01-15T10:41:23;0.30;;;0.30;;
51066;SDS011;37112;45.892;-123.962;2023-01-15T10:43:48;0.30;;;0.30;;
51066;SDS011;37112;45.892;-123.962;2023-01-15T10:46:08;0.30;;;0.30;;
51066;SDS011;37112;45.892;-123.962;2023-01-15T10:48:27;0.30;;;0.30;;
51066;SDS011;37112;45.892;-123.962;2023-01-15T10:50:44;1.40;;;0.30;;
51066;SDS011;37112;45.892;-123.962;2023-01-15T10:53:01;0.30;;;0.30;;
51066;SDS011;37112;45.892;-123.962;2023-01-15T10:55:22;0.70;;;0.20;;
51066;SDS011;37112;45.892;-123.962;2023-01-15T10:57:40;0.30;;;0.30;;
51066;SDS011;37112;45.892;-123.962;2023-01-15T11:00:15;1.00;;;0.30;;
51066;SDS011;37112;45.892;-123.962;2023-01-15T11:02:31;0.30;;;0.30;;
51066;SDS011;37112;45.892;-123.962;2023-01-15T11:04:48;0.30;;;0.30;;
51066;SDS011;37112;45.892;-123.962;2023-01-15T11:07:02;0.60;;;0.30;;
51066;SDS011;37112;45.892;-123.962;2023-01-15T11:09:18;0.30;;;0.30;;
51066;SDS011;37112;45.892;-123.962;2023-01-15T11:14:06;0.30;;;0.30;;
51066;SDS011;37112;45.892;-123.962;2023-01-15T11:16:35;0.30;;;0.30;;
51066;SDS011;37112;45.892;-123.962;2023-01-15T11:21:51;0.30;;;0.30;;
51066;SDS011;37112;45.892;-123.962;2023-01-15T11:24:11;0.30;;;0.30;;
51066;SDS011;37112;45.892;-123.962;2023-01-15T11:26:28;0.30;;;0.30;;
51066;SDS011;37112;45.892;-123.962;2023-01-15T11:28:42;0.30;;;0.30;;
51066;SDS011;37112;45.892;-123.962;2023-01-15T11:30:56;0.30;;;0.30;;
51066;SDS011;37112;45.892;-123.962;2023-01-15T11:33:20;0.30;;;0.30;;
51066;SDS011;37112;45.892;-123.962;2023-01-15T11:35:35;0.30;;;0.30;;
51066;SDS011;37112;45.892;-123.962;2023-01-15T11:38:05;2.20;;;0.50;;
51066;SDS011;37112;45.892;-123.962;2023-01-15T11:40:27;2.40;;;0.40;;
51066;SDS011;37112;45.892;-123.962;2023-01-15T11:42:44;0.40;;;0.40;;
51066;SDS011;37112;45.892;-123.962;2023-01-15T11:45:16;0.30;;;0.30;;
51066;SDS011;37112;45.892;-123.962;2023-01-15T11:47:56;0.30;;;0.30;;
51066;SDS011;37112;45.892;-123.962;2023-01-15T11:50:26;0.40;;;0.40;;
51066;SDS011;37112;45.892;-123.962;2023-01-15T11:52:54;0.50;;;0.50;;
51066;SDS011;37112;45.892;-123.962;2023-01-15T11:55:10;2.90;;;0.30;;
51066;SDS011;37112;45.892;-123.962;2023-01-15T11:57:27;0.50;;;0.30;;
51066;SDS011;37112;45.892;-123.962;2023-01-15T11:59:42;0.30;;;0.30;;
51066;SDS011;37112;45.892;-123.962;2023-01-15T12:02:00;0.40;;;0.40;;
51066;SDS011;37112;45.892;-123.962;2023-01-15T12:04:28;0.30;;;0.30;;
51066;SDS011;37112;45.892;-123.962;2023-01-15T12:06:45;0.30;;;0.30;;
51066;SDS011;37112;45.892;-123.962;2023-01-15T12:09:00;0.30;;;0.30;;
51066;SDS011;37112;45.892;-123.962;2023-01-15T12:16:47;3.40;;;0.30;;
51066;SDS011;37112;45.892;-123.962;2023-01-15T12:19:06;0.30;;;0.30;;
51066;SDS011;37112;45.892;-123.962;2023-01-15T12:21:31;0.30;;;0.30;;
51066;SDS011;37112;45.892;-123.962;2023-01-15T12:24:01;0.30;;;0.30;;
51066;SDS011;37112;45.892;-123.962;2023-01-15T12:26:26;0.30;;;0.30;;
51066;SDS011;37112;45.892;-123.962;2023-01-15T12:28:43;0.30;;;0.30;;
51066;SDS011;37112;45.892;-123.962;2023-01-15T12:31:03;0.30;;;0.30;;
51066;SDS011;37112;45.892;-123.962;2023-01-15T12:33:23;0.30;;;0.30;;
51066;SDS011;37112;45.892;-123.962;2023-01-15T12:35:55;0.30;;;0.30;;
51066;SDS011;37112;45.892;-123.962;2023-01-15T12:38:14;0.30;;;0.30;;
51066;SDS011;37112;45.892;-123.962;2023-01-15T12:40:36;0.30;;;0.30;;
51066;SDS011;37112;45.892;-123.962;2023-01-15T12:42:52;0.30;;;0.30;;
51066;SDS011;37112;45.892;-123.962;2023-01-15T12:45:23;0.30;;;0.30;;
51066;SDS011;37112;45.892;-123.962;2023-01-15T12:47:42;0.40;;;0.30;;
51066;SDS011;37112;45.892;-123.962;2023-01-15T12:49:59;0.40;;;0.40;;
51066;SDS011;37112;45.892;-123.962;2023-01-15T12:52:21;0.30;;;0.30;;
51066;SDS011;37112;45.892;-123.962;2023-01-15T12:54:44;0.30;;;0.30;;
51066;SDS011;37112;45.892;-123.962;2023-01-15T12:57:11;0.30;;;0.30;;
51066;SDS011;37112;45.892;-123.962;2023-01-15T12:59:27;0.30;;;0.30;;
51066;SDS011;37112;45.892;-123.962;2023-01-15T13:01:47;0.30;;;0.30;;
51066;SDS011;37112;45.892;-123.962;2023-01-15T13:04:13;0.30;;;0.30;;
51066;SDS011;37112;45.892;-123.962;2023-01-15T13:06:32;0.30;;;0.30;;
51066;SDS011;37112;45.892;-123.962;2023-01-15T13:08:53;0.40;;;0.30;;
51066;SDS011;37112;45.892;-123.962;2023-01-15T13:11:11;0.30;;;0.30;;
51066;SDS011;37112;45.892;-123.962;2023-01-15T13:13:24;0.30;;;0.30;;
51066;SDS011;37112;45.892;-123.962;2023-01-15T13:15:43;0.30;;;0.30;;
51066;SDS011;37112;45.892;-123.962;2023-01-15T13:18:13;0.30;;;0.30;;
51066;SDS011;37112;45.892;-123.962;2023-01-15T13:20:34;0.40;;;0.30;;
51066;SDS011;37112;45.892;-123.962;2023-01-15T13:22:53;0.30;;;0.30;;
51066;SDS011;37112;45.892;-123.962;2023-01-15T13:25:31;0.30;;;0.30;;
51066;SDS011;37112;45.892;-123.962;2023-01-15T13:28:00;0.90;;;0.30;;
51066;SDS011;37112;45.892;-123.962;2023-01-15T13:30:26;0.60;;;0.30;;
51066;SDS011;37112;45.892;-123.962;2023-01-15T13:32:53;0.30;;;0.30;;